createdAt,value
2023-05-15T00:01:50.433Z,45.68
2023-05-15T00:04:20.853Z,45.54
2023-05-15T00:06:52.121Z,45.56
2023-05-15T00:09:22.806Z,45.63
2023-05-15T00:11:54.962Z,45.53
2023-05-15T00:14:27.221Z,45.30
2023-05-15T00:16:57.843Z,45.31
2023-05-15T00:19:28.727Z,45.66
2023-05-15T00:21:59.246Z,45.62
2023-05-15T00:24:29.788Z,45.65
2023-05-15T00:27:02.831Z,45.67
2023-05-15T00:29:33.258Z,45.93
2023-05-15T00:32:04.299Z,45.52
2023-05-15T00:34:34.276Z,45.43
2023-05-15T00:37:04.225Z,45.86
2023-05-15T00:39:34.847Z,45.24
2023-05-15T00:42:09.231Z,45.58
2023-05-15T00:44:43.201Z,45.71
2023-05-15T00:47:15.583Z,45.61
2023-05-15T00:49:46.986Z,45.57
2023-05-15T00:52:18.315Z,45.42
2023-05-15T00:54:48.436Z,45.78
2023-05-15T00:57:22.388Z,45.29
2023-05-15T00:59:55.369Z,45.74
2023-05-15T01:02:26.396Z,45.54
2023-05-15T01:04:57.153Z,45.65
2023-05-15T01:07:27.677Z,45.71
2023-05-15T01:09:59.954Z,45.34
2023-05-15T01:12:35.609Z,45.34
2023-05-15T01:15:06.251Z,45.68
2023-05-15T01:17:36.439Z,45.68
2023-05-15T01:20:13.396Z,45.67
2023-05-15T01:23:07.837Z,45.72
2023-05-15T01:26:29.625Z,45.73
2023-05-15T01:29:11.514Z,45.65
2023-05-15T01:31:50.402Z,45.63
2023-05-15T01:34:25.925Z,45.55
2023-05-15T01:37:05.736Z,45.47
2023-05-15T01:39:39.899Z,45.48
2023-05-15T01:42:14.912Z,45.42
2023-05-15T01:45:10.100Z,45.55
2023-05-15T01:47:47.363Z,45.33
2023-05-15T01:50:22.161Z,45.54
2023-05-15T01:52:58.881Z,45.73
2023-05-15T01:55:33.008Z,45.90
2023-05-15T01:58:07.188Z,45.45
2023-05-15T02:00:41.212Z,45.60
2023-05-15T02:03:12.212Z,45.98
2023-05-15T02:05:44.432Z,45.84
2023-05-15T02:08:15.812Z,45.84
2023-05-15T02:10:47.718Z,45.81
2023-05-15T02:13:19.531Z,45.87
2023-05-15T02:15:52.404Z,45.94
2023-05-15T02:18:23.000Z,45.97
2023-05-15T02:20:53.210Z,45.69
2023-05-15T02:23:23.765Z,46.07
2023-05-15T02:26:23.922Z,45.97
2023-05-15T02:29:12.671Z,46.11
2023-05-15T02:31:55.584Z,45.75
2023-05-15T02:34:39.432Z,46.11
2023-05-15T02:37:18.646Z,46.13
2023-05-15T02:39:54.335Z,46.24
2023-05-15T02:42:26.091Z,46.08
2023-05-15T02:44:58.484Z,46.07
2023-05-15T02:47:32.275Z,45.92
2023-05-15T02:50:04.138Z,46.18
2023-05-15T02:52:36.762Z,46.11
2023-05-15T02:55:08.179Z,46.25
2023-05-15T02:57:38.634Z,46.25
2023-05-15T03:00:12.148Z,46.17
2023-05-15T03:02:44.239Z,46.15
2023-05-15T03:05:14.366Z,46.11
2023-05-15T03:07:45.089Z,46.23
2023-05-15T03:10:15.596Z,45.96
2023-05-15T03:12:46.100Z,46.30
2023-05-15T03:15:16.594Z,46.03
2023-05-15T03:17:49.055Z,45.98
2023-05-15T03:20:19.411Z,46.13
2023-05-15T03:22:49.810Z,46.07
2023-05-15T03:25:20.047Z,46.13
2023-05-15T03:27:50.568Z,45.86
2023-05-15T03:30:20.693Z,46.29
2023-05-15T03:32:52.599Z,45.92
2023-05-15T03:35:23.379Z,45.97
2023-05-15T03:37:54.279Z,46.16
2023-05-15T03:40:25.057Z,46.05
2023-05-15T03:42:55.575Z,46.14
2023-05-15T03:45:26.348Z,46.27
2023-05-15T03:47:58.634Z,46.05
2023-05-15T03:50:29.586Z,46.07
2023-05-15T03:52:59.860Z,46.17
2023-05-15T03:55:30.928Z,46.32
2023-05-15T03:58:01.508Z,46.13
2023-05-15T04:00:32.282Z,46.23
2023-05-15T04:03:04.919Z,46.11
2023-05-15T04:05:35.637Z,46.19
2023-05-15T04:08:05.512Z,46.44
2023-05-15T04:10:36.088Z,46.43
2023-05-15T04:13:06.866Z,46.26
2023-05-15T04:15:37.553Z,46.31
2023-05-15T04:18:10.500Z,46.11
2023-05-15T04:20:41.175Z,46.37
2023-05-15T04:23:11.605Z,46.81
2023-05-15T04:25:43.223Z,46.38
2023-05-15T04:28:13.672Z,46.38
2023-05-15T04:30:44.433Z,46.50
2023-05-15T04:33:16.058Z,46.67
2023-05-15T04:35:46.436Z,46.38
2023-05-15T04:38:17.026Z,46.40
2023-05-15T04:40:47.052Z,46.23
2023-05-15T04:43:17.677Z,46.56
2023-05-15T04:45:48.241Z,46.42
2023-05-15T04:48:21.584Z,46.62
2023-05-15T04:50:52.270Z,46.58
2023-05-15T04:53:22.977Z,46.74
2023-05-15T04:55:52.983Z,46.61
2023-05-15T04:58:23.515Z,46.43
2023-05-15T05:00:54.331Z,46.63
2023-05-15T05:03:26.050Z,46.59
2023-05-15T05:05:56.878Z,46.62
2023-05-15T05:08:27.094Z,46.39
2023-05-15T05:10:59.817Z,47.02
2023-05-15T05:13:29.978Z,46.71
2023-05-15T05:16:00.565Z,46.45
2023-05-15T05:18:47.936Z,46.52
2023-05-15T05:21:18.470Z,46.93
2023-05-15T05:23:49.323Z,46.67
2023-05-15T05:26:19.960Z,46.40
2023-05-15T05:28:50.505Z,46.71
2023-05-15T05:31:21.286Z,46.64
2023-05-15T05:33:53.578Z,46.73
2023-05-15T05:36:24.202Z,46.43
2023-05-15T05:38:54.801Z,46.36
2023-05-15T05:41:25.521Z,46.52
2023-05-15T05:43:55.949Z,46.52
2023-05-15T05:46:27.583Z,46.56
2023-05-15T05:49:00.352Z,46.62
2023-05-15T05:51:31.890Z,46.64
2023-05-15T05:54:03.428Z,46.71
2023-05-15T05:56:34.209Z,46.87
2023-05-15T05:59:04.321Z,46.50
2023-05-15T06:01:34.528Z,46.51
2023-05-15T06:04:07.933Z,46.71
2023-05-15T06:06:38.888Z,46.34
2023-05-15T06:09:09.843Z,46.39
2023-05-15T06:11:40.878Z,46.25
2023-05-15T06:14:10.801Z,46.88
2023-05-15T06:16:41.330Z,46.68
2023-05-15T06:19:13.965Z,46.69
2023-05-15T06:21:44.526Z,46.71
2023-05-15T06:24:15.342Z,46.75
2023-05-15T06:26:45.901Z,46.31
2023-05-15T06:29:16.453Z,46.08
2023-05-15T06:31:46.486Z,46.16
2023-05-15T06:34:19.407Z,46.16
2023-05-15T06:36:49.446Z,46.35
2023-05-15T06:39:19.983Z,46.00
2023-05-15T06:41:50.223Z,45.81
2023-05-15T06:44:20.745Z,46.51
2023-05-15T06:46:51.222Z,46.54
2023-05-15T06:49:23.971Z,46.25
2023-05-15T06:51:55.356Z,46.35
2023-05-15T06:54:25.535Z,46.23
2023-05-15T06:56:56.172Z,46.05
2023-05-15T06:59:26.764Z,46.03
2023-05-15T07:01:57.496Z,45.82
2023-05-15T07:04:31.497Z,46.31
2023-05-15T07:07:02.456Z,46.16
2023-05-15T07:09:34.018Z,46.14
2023-05-15T07:12:04.319Z,45.97
2023-05-15T07:14:34.665Z,45.96
2023-05-15T07:17:04.758Z,45.73
2023-05-15T07:19:37.446Z,46.20
2023-05-15T07:22:08.751Z,46.37
2023-05-15T07:24:40.569Z,46.09
2023-05-15T07:27:11.517Z,46.10
2023-05-15T07:29:42.114Z,45.99
2023-05-15T07:32:12.742Z,46.06
2023-05-15T07:34:45.203Z,45.81
2023-05-15T07:37:16.888Z,46.01
2023-05-15T07:39:47.653Z,46.21
2023-05-15T07:42:18.735Z,45.96
2023-05-15T07:44:49.667Z,45.93
2023-05-15T07:47:20.843Z,45.38
2023-05-15T07:49:52.333Z,45.82
2023-05-15T07:52:23.441Z,45.65
2023-05-15T07:54:54.107Z,45.49
2023-05-15T07:57:26.054Z,45.81
2023-05-15T07:59:56.459Z,45.39
2023-05-15T08:02:26.790Z,45.90
2023-05-15T08:04:59.518Z,45.24
2023-05-15T08:07:30.305Z,45.15
2023-05-15T08:10:00.148Z,45.73
2023-05-15T08:12:30.233Z,45.80
2023-05-15T08:15:00.293Z,45.65
2023-05-15T08:17:31.063Z,45.38
2023-05-15T08:20:03.473Z,45.33
2023-05-15T08:22:33.630Z,45.25
2023-05-15T08:25:04.341Z,45.10
2023-05-15T08:27:35.020Z,45.46
2023-05-15T08:30:06.101Z,45.61
2023-05-15T08:32:36.745Z,45.38
2023-05-15T08:35:10.843Z,45.53
2023-05-15T08:37:41.662Z,45.10
2023-05-15T08:40:14.342Z,45.45
2023-05-15T08:42:50.993Z,45.21
2023-05-15T08:45:22.626Z,45.55
2023-05-15T08:47:53.651Z,44.90
2023-05-15T08:50:27.376Z,44.92
2023-05-15T08:53:02.003Z,44.94
2023-05-15T08:55:32.288Z,45.25
2023-05-15T08:58:04.456Z,45.18
2023-05-15T09:00:35.701Z,45.20
2023-05-15T09:03:08.102Z,45.47
2023-05-15T09:05:40.237Z,45.03
2023-05-15T09:08:12.644Z,45.25
2023-05-15T09:10:43.190Z,45.02
2023-05-15T09:13:15.623Z,45.06
2023-05-15T09:15:47.748Z,44.78
2023-05-15T09:18:19.372Z,44.93
2023-05-15T09:20:53.522Z,44.93
2023-05-15T09:23:29.855Z,44.99
2023-05-15T09:26:00.812Z,45.35
2023-05-15T09:28:34.156Z,44.71
2023-05-15T09:31:09.311Z,44.86
2023-05-15T09:33:41.025Z,44.57
2023-05-15T09:36:14.113Z,45.30
2023-05-15T09:38:48.637Z,44.58
2023-05-15T09:41:29.429Z,44.52
2023-05-15T09:43:59.911Z,44.67
2023-05-15T09:46:30.615Z,44.98
2023-05-15T09:49:02.665Z,45.21
2023-05-15T09:51:34.721Z,44.96
2023-05-15T09:54:05.372Z,44.57
2023-05-15T09:56:36.683Z,44.55
2023-05-15T09:59:06.853Z,44.47
2023-05-15T10:01:39.402Z,44.42
2023-05-15T10:04:09.524Z,45.15
2023-05-15T10:06:43.872Z,44.52
2023-05-15T10:09:14.720Z,44.61
2023-05-15T10:11:47.580Z,44.61
2023-05-15T10:14:21.161Z,44.86
2023-05-15T10:16:53.567Z,44.86
2023-05-15T10:19:31.294Z,44.57
2023-05-15T10:22:04.291Z,44.38
2023-05-15T10:24:35.990Z,44.82
2023-05-15T10:27:07.792Z,44.34
2023-05-15T10:29:39.522Z,44.40
2023-05-15T10:32:09.844Z,44.11
2023-05-15T10:34:40.576Z,44.46
2023-05-15T10:37:14.555Z,44.60
2023-05-15T10:39:47.915Z,44.59
2023-05-15T10:42:19.363Z,44.72
2023-05-15T10:44:51.499Z,44.52
2023-05-15T10:47:22.422Z,44.44
2023-05-15T10:49:52.461Z,43.95
2023-05-15T10:52:24.749Z,43.79
2023-05-15T10:54:57.380Z,44.46
2023-05-15T10:57:27.844Z,43.99
2023-05-15T10:59:57.951Z,44.01
2023-05-15T11:02:31.918Z,43.87
2023-05-15T11:05:04.796Z,44.15
2023-05-15T11:07:37.615Z,44.49
2023-05-15T11:10:41.909Z,43.90
2023-05-15T11:13:12.432Z,43.97
2023-05-15T11:15:46.485Z,44.37
2023-05-15T11:18:17.622Z,44.27
2023-05-15T11:21:10.601Z,43.77
2023-05-15T11:23:49.549Z,44.21
2023-05-15T11:26:34.784Z,43.90
2023-05-15T11:29:22.343Z,43.56
2023-05-15T11:31:53.221Z,43.78
2023-05-15T11:34:33.433Z,43.95
2023-05-15T11:37:04.659Z,43.77
2023-05-15T11:39:43.783Z,43.65
2023-05-15T11:42:15.617Z,43.72
2023-05-15T11:44:49.508Z,43.85
2023-05-15T11:47:20.006Z,44.05
2023-05-15T11:49:52.488Z,43.52
2023-05-15T11:52:23.112Z,44.08
2023-05-15T11:54:57.933Z,43.87
2023-05-15T11:57:27.946Z,43.99
2023-05-15T11:59:58.350Z,43.72
2023-05-15T12:02:30.528Z,44.13
2023-05-15T12:05:01.224Z,43.91
2023-05-15T12:07:32.907Z,43.85
2023-05-15T12:10:05.328Z,43.37
2023-05-15T12:12:37.689Z,43.85
2023-05-15T12:15:10.895Z,43.89
2023-05-15T12:17:42.901Z,43.22
2023-05-15T12:20:20.330Z,43.22
2023-05-15T12:22:50.722Z,43.32
2023-05-15T12:25:22.718Z,43.59
2023-05-15T12:27:53.554Z,43.85
2023-05-15T12:30:24.424Z,43.73
2023-05-15T12:32:55.277Z,43.32
2023-05-15T12:35:25.547Z,43.39
2023-05-15T12:37:56.160Z,43.76
2023-05-15T12:40:29.900Z,43.93
2023-05-15T12:43:00.591Z,43.73
2023-05-15T12:45:30.797Z,43.76
2023-05-15T12:48:02.192Z,43.43
2023-05-15T12:50:35.640Z,43.69
2023-05-15T12:53:08.334Z,43.51
2023-05-15T12:55:42.907Z,43.31
2023-05-15T12:58:15.612Z,43.80
2023-05-15T13:00:48.376Z,43.12
2023-05-15T13:03:22.569Z,43.12
2023-05-15T13:05:55.175Z,43.05
2023-05-15T13:08:26.006Z,43.53
2023-05-15T13:11:02.444Z,43.29
2023-05-15T13:13:50.310Z,43.67
2023-05-15T13:16:26.507Z,43.35
2023-05-15T13:18:57.536Z,43.36
2023-05-15T13:21:28.287Z,43.59
2023-05-15T13:23:59.125Z,42.80
2023-05-15T13:26:31.541Z,42.96
2023-05-15T13:29:01.970Z,43.11
2023-05-15T13:31:32.579Z,42.83
2023-05-15T13:34:02.943Z,42.83
2023-05-15T13:36:33.413Z,42.94
2023-05-15T13:39:04.164Z,43.33
2023-05-15T13:41:36.666Z,43.35
2023-05-15T13:44:06.841Z,43.04
2023-05-15T13:46:37.396Z,42.78
2023-05-15T13:49:07.954Z,42.84
2023-05-15T13:51:38.136Z,43.06
2023-05-15T13:54:08.771Z,42.69
2023-05-15T13:56:41.108Z,42.72
2023-05-15T13:59:11.645Z,43.06
2023-05-15T14:01:42.066Z,42.98
2023-05-15T14:04:12.797Z,43.08
2023-05-15T14:06:44.054Z,42.85
2023-05-15T14:09:14.804Z,43.02
2023-05-15T14:11:46.830Z,42.55
2023-05-15T14:14:17.165Z,42.97
2023-05-15T14:16:47.896Z,42.96
2023-05-15T14:19:18.372Z,43.22
2023-05-15T14:21:48.913Z,43.07
2023-05-15T14:24:19.528Z,43.02
2023-05-15T14:26:51.906Z,43.07
2023-05-15T14:29:22.466Z,42.63
2023-05-15T14:31:53.024Z,42.95
2023-05-15T14:34:24.200Z,42.66
2023-05-15T14:36:54.352Z,42.61
2023-05-15T14:39:24.488Z,42.85
2023-05-15T14:41:56.944Z,42.49
2023-05-15T14:44:27.395Z,43.16
2023-05-15T14:47:10.310Z,42.95
2023-05-15T14:49:41.482Z,42.80
2023-05-15T14:52:13.662Z,42.79
2023-05-15T14:54:44.674Z,42.56
2023-05-15T14:57:21.058Z,42.87
2023-05-15T14:59:51.589Z,42.48
2023-05-15T15:02:21.704Z,42.38
2023-05-15T15:04:52.302Z,42.93
2023-05-15T15:07:22.252Z,42.50
2023-05-15T15:09:52.449Z,43.01
2023-05-15T15:12:24.334Z,42.96
2023-05-15T15:14:55.768Z,42.60
2023-05-15T15:17:27.098Z,42.85
2023-05-15T15:19:58.012Z,42.60
2023-05-15T15:22:28.909Z,42.29
2023-05-15T15:25:00.925Z,42.64
2023-05-15T15:27:35.406Z,42.71
2023-05-15T15:30:07.151Z,42.49
2023-05-15T15:32:37.890Z,42.73
2023-05-15T15:35:10.177Z,42.50
2023-05-15T15:37:41.226Z,42.38
2023-05-15T15:40:12.530Z,42.53
2023-05-15T15:42:45.409Z,42.17
2023-05-15T15:45:15.295Z,42.73
2023-05-15T15:47:46.198Z,42.48
2023-05-15T15:50:17.235Z,42.23
2023-05-15T15:52:47.191Z,42.35
2023-05-15T15:55:17.172Z,42.19
2023-05-15T15:57:49.450Z,42.16
2023-05-15T16:00:20.858Z,42.57
2023-05-15T16:02:51.119Z,42.10
2023-05-15T16:05:21.818Z,42.24
2023-05-15T16:07:51.556Z,42.48
2023-05-15T16:10:21.572Z,42.58
2023-05-15T16:12:54.004Z,42.72
2023-05-15T16:15:24.657Z,42.81
2023-05-15T16:17:55.738Z,42.34
2023-05-15T16:20:26.550Z,42.79
2023-05-15T16:22:57.158Z,42.43
2023-05-15T16:25:27.600Z,42.31
2023-05-15T16:27:59.964Z,42.92
2023-05-15T16:30:44.272Z,42.51
2023-05-15T16:33:19.924Z,42.60
2023-05-15T16:35:49.878Z,42.89
2023-05-15T16:38:21.610Z,42.86
2023-05-15T16:40:52.397Z,42.81
2023-05-15T16:43:23.988Z,43.06
2023-05-15T16:45:54.699Z,42.91
2023-05-15T16:48:26.617Z,43.21
2023-05-15T16:50:57.334Z,42.84
2023-05-15T16:53:27.844Z,42.78
2023-05-15T16:55:58.206Z,42.87
2023-05-15T16:58:31.176Z,43.13
2023-05-15T17:01:03.499Z,43.34
2023-05-15T17:03:34.615Z,42.99
2023-05-15T17:06:05.150Z,43.41
2023-05-15T17:08:35.693Z,43.19
2023-05-15T17:11:06.273Z,43.24
2023-05-15T17:13:38.736Z,43.01
2023-05-15T17:16:09.345Z,43.56
2023-05-15T17:18:40.135Z,43.84
2023-05-15T17:21:11.297Z,43.54
2023-05-15T17:23:41.562Z,43.88
2023-05-15T17:26:11.961Z,43.40
2023-05-15T17:28:45.196Z,43.91
2023-05-15T17:31:15.394Z,43.45
2023-05-15T17:33:47.587Z,43.77
2023-05-15T17:36:18.675Z,43.60
2023-05-15T17:38:48.788Z,44.03
2023-05-15T17:41:18.829Z,43.73
2023-05-15T17:43:53.527Z,43.97
2023-05-15T17:46:24.226Z,43.73
2023-05-15T17:48:54.481Z,43.94
2023-05-15T17:51:25.279Z,43.63
2023-05-15T17:53:55.978Z,43.67
2023-05-15T17:56:27.595Z,44.06
2023-05-15T17:58:59.698Z,44.05
2023-05-15T18:01:30.195Z,44.08
2023-05-15T18:04:01.117Z,43.92
2023-05-15T18:06:31.536Z,43.81
2023-05-15T18:09:02.752Z,44.09
2023-05-15T18:11:32.691Z,44.17
2023-05-15T18:14:07.809Z,44.05
2023-05-15T18:16:37.968Z,44.67
2023-05-15T18:19:08.729Z,44.62
2023-05-15T18:21:39.223Z,44.13
2023-05-15T18:24:10.200Z,44.20
2023-05-15T18:26:40.222Z,44.25
2023-05-15T18:29:13.037Z,44.69
2023-05-15T18:31:46.701Z,44.34
2023-05-15T18:34:16.814Z,44.32
2023-05-15T18:36:47.223Z,44.48
2023-05-15T18:39:18.198Z,44.42
2023-05-15T18:41:48.166Z,44.60
2023-05-15T18:44:19.818Z,44.85
2023-05-15T18:46:49.891Z,45.07
2023-05-15T18:49:21.083Z,44.86
2023-05-15T18:51:51.651Z,44.54
2023-05-15T18:54:22.476Z,44.41
2023-05-15T18:56:53.485Z,44.97
2023-05-15T18:59:28.665Z,44.72
2023-05-15T19:02:03.280Z,44.61
2023-05-15T19:04:40.279Z,44.57
2023-05-15T19:07:11.652Z,44.92
2023-05-15T19:09:42.215Z,44.84
2023-05-15T19:12:12.814Z,44.74
2023-05-15T19:14:45.469Z,44.69
2023-05-15T19:17:15.874Z,45.03
2023-05-15T19:19:45.673Z,45.06
2023-05-15T19:22:17.818Z,45.18
2023-05-15T19:24:47.746Z,45.23
2023-05-15T19:27:17.828Z,44.56
2023-05-15T19:29:50.220Z,44.93
2023-05-15T19:32:20.306Z,44.99
2023-05-15T19:34:50.906Z,44.70
2023-05-15T19:37:20.877Z,45.02
2023-05-15T19:39:51.409Z,45.25
2023-05-15T19:42:22.068Z,44.71
2023-05-15T19:44:53.775Z,45.07
2023-05-15T19:47:23.694Z,45.03
2023-05-15T19:49:54.270Z,44.98
2023-05-15T19:52:25.239Z,45.21
2023-05-15T19:54:55.837Z,45.30
2023-05-15T19:57:26.200Z,44.98
2023-05-15T19:59:58.767Z,44.90
2023-05-15T20:02:29.444Z,45.14
2023-05-15T20:04:59.917Z,45.12
2023-05-15T20:07:30.263Z,45.38
2023-05-15T20:10:00.350Z,45.10
2023-05-15T20:12:30.377Z,45.25
2023-05-15T20:15:04.676Z,45.61
2023-05-15T20:17:35.721Z,45.30
2023-05-15T20:20:08.726Z,45.03
2023-05-15T20:22:39.818Z,45.31
2023-05-15T20:25:11.689Z,45.56
2023-05-15T20:27:42.434Z,45.12
2023-05-15T20:30:16.533Z,45.21
2023-05-15T20:32:46.833Z,45.28
2023-05-15T20:35:17.839Z,45.54
2023-05-15T20:37:49.184Z,45.68
2023-05-15T20:40:23.286Z,45.26
2023-05-15T20:42:54.820Z,45.42
2023-05-15T20:45:28.668Z,45.34
2023-05-15T20:47:58.925Z,45.45
2023-05-15T20:50:29.660Z,45.31
2023-05-15T20:53:00.308Z,45.42
2023-05-15T20:55:30.868Z,45.49
2023-05-15T20:58:01.247Z,45.58
2023-05-15T21:00:33.913Z,45.59
2023-05-15T21:03:04.135Z,45.64
2023-05-15T21:05:34.933Z,45.23
2023-05-15T21:08:08.305Z,45.38
2023-05-15T21:10:39.020Z,46.02
2023-05-15T21:13:09.170Z,45.41
2023-05-15T21:15:41.639Z,45.79
2023-05-15T21:18:12.156Z,45.32
2023-05-15T21:20:43.261Z,45.49
2023-05-15T21:23:13.380Z,45.56
2023-05-15T21:25:45.408Z,45.90
2023-05-15T21:28:16.136Z,45.73
2023-05-15T21:30:48.315Z,45.69
2023-05-15T21:33:18.369Z,45.58
2023-05-15T21:35:49.382Z,45.57
2023-05-15T21:38:19.769Z,45.94
2023-05-15T21:40:50.173Z,45.51
2023-05-15T21:43:19.999Z,46.01
2023-05-15T21:45:51.952Z,45.60
2023-05-15T21:48:21.799Z,45.77
2023-05-15T21:50:52.062Z,45.97
2023-05-15T21:53:22.720Z,45.45
2023-05-15T21:55:57.319Z,45.75
2023-05-15T21:58:27.847Z,45.98
2023-05-15T22:00:59.836Z,45.74
2023-05-15T22:03:30.511Z,45.81
2023-05-15T22:06:00.964Z,45.84
2023-05-15T22:08:31.958Z,45.76
2023-05-15T22:11:03.734Z,45.90
2023-05-15T22:13:34.498Z,45.58
2023-05-15T22:16:06.805Z,46.11
2023-05-15T22:18:38.256Z,46.19
2023-05-15T22:21:09.099Z,46.16
2023-05-15T22:23:39.495Z,45.88
2023-05-15T22:26:09.617Z,46.23
2023-05-15T22:28:39.684Z,45.63
2023-05-15T22:31:11.076Z,45.67
2023-05-15T22:33:41.546Z,45.90
2023-05-15T22:36:12.408Z,45.64
2023-05-15T22:38:42.935Z,45.79
2023-05-15T22:41:12.930Z,45.44
2023-05-15T22:43:42.964Z,45.80
2023-05-15T22:46:16.466Z,45.71
2023-05-15T22:48:47.019Z,45.50
2023-05-15T22:51:18.007Z,45.86
2023-05-15T22:53:48.587Z,45.74
2023-05-15T22:56:19.105Z,45.66
2023-05-15T22:58:50.326Z,45.54
2023-05-15T23:01:22.258Z,45.69
2023-05-15T23:03:52.757Z,45.63
2023-05-15T23:06:22.725Z,45.45
2023-05-15T23:08:53.334Z,45.70
2023-05-15T23:11:23.571Z,45.46
2023-05-15T23:13:54.189Z,45.47
2023-05-15T23:16:26.783Z,45.39
2023-05-15T23:18:59.973Z,45.32
2023-05-15T23:21:31.588Z,45.75
2023-05-15T23:24:02.042Z,45.55
2023-05-15T23:26:32.510Z,45.40
2023-05-15T23:29:03.110Z,45.63
2023-05-15T23:31:35.309Z,45.45
2023-05-15T23:34:05.938Z,45.32
2023-05-15T23:36:36.357Z,45.79
2023-05-15T23:39:08.476Z,45.72
2023-05-15T23:41:39.055Z,45.47
2023-05-15T23:44:09.546Z,45.31
2023-05-15T23:46:41.706Z,45.82
2023-05-15T23:49:12.618Z,45.57
2023-05-15T23:51:44.118Z,45.55
2023-05-15T23:54:14.532Z,45.42
2023-05-15T23:56:44.880Z,45.89
2023-05-15T23:59:16.067Z,45.81
